Terminal Aerodrome Forecast
Issued by NWS

Home | Current Version | Previous Version | Text Only | Print | Product List | Glossary On
Versions: 1 2 3 4 5 6 7 8 9 10 11 12 13 14 15 16 17 18 19
008
FTUS41 KLWX 211320 AAA
TAFMTN
TAF AMD
KMTN 211320Z 2113/2212 VRB03KT 1/2SM -DZ FG BKN002 OVC005
     FM211600 VRB03KT 5SM -DZ BR BKN004 OVC008
     FM211800 15004KT P6SM BKN008 OVC015
     FM212300 14004KT 5SM -DZ BR BKN004 OVC008
     FM220600 VRB03KT 1SM -DZ BR OVC003=

USA.gov is the U.S. government's official web portal to all federal, state and local government web resources and services.